[Jeden Montag | 1900lcl - 2200lcl ] EDDL | Düsseldorf Monday

Zu Eventkalender hinzugefügt: 558 Daten

Kai Schuele

1482477
RG Düsseldorf - Event
ACtC-3fxPHH-pFI9LbR6lefGD142tAQVEnYcfKRyOc-x7T_VQnoY2ipS-QdAKGyfZipsn5BZEEvs7ku6z8R716r8AdwAB7F5ue9eL57Bj8VQAhiCdn9obOwRAULzvGNOBZ83ZRwxybPOxP6a4BzeNtjHmBom=w800-h526-no





Heute ist wieder Düsseldorf Monday

Zum Wochenstart haben wir wie jede Woche unseren Ausbildungs Flughafen in Düsseldorf von DEL bis CTR voll für euch besetzt.
Das Wetter verspricht heute etwas unbeständiges Wetter, von Sonne bis Regen ist alles dabei, also beste Bedingungen für den Weg ins Virtuelle Cockpit.
Genießt wie immer unseren gewohnt guten ATC Service und beginnt oder beendet heute euren Flug bei uns.

Wie jede Woche bietet sich natürlich unsere kleine Rennstrecke zu den Kollegen in Nürnberg (EDDN) die wie gewohnt heute auch ihren Onlinetag haben.
Aber auch ein Trip zum Onlinetag in Budapest (LHBP)können wir euch nur Wärmsten Empfehlen oder wer gerne mal zum Final Vectoriert werden möchte wäre das "Vectors to Copenhagen“ heute eine gute Alternative.


Also seid dabei ab 17:00z (19:00lcl) wenn es wieder heißt "Willkommen an ihrem Flughafen Düsseldorf"

Wir freuen uns bis Gleich!



Nützliche Infos:

Scenery:

TAF:
  • EDDL 170500Z 1706/1812 18008KT 9999 FEW025 SCT045 BECMG 1707/1709 20013KT TEMPO 1708/1719 26015G25KT SHRA BKN025TCU PROB30 TEMPO 1710/1718 28020G30KT 4000 TSRA BKN020CB BECMG 1711/1714 26013KT BECMG 1717/1720 27007KT BECMG 1722/1801 21005KT BECMG 1801/1804 BKN010 TEMPO 1805/1809 RA BECMG 1809/1812 SCT010 BKN030 TEMPO 1809/1812 SHRA BKN020TCU
 

Kai Schuele

1482477
RG Düsseldorf - Event
ACtC-3fxPHH-pFI9LbR6lefGD142tAQVEnYcfKRyOc-x7T_VQnoY2ipS-QdAKGyfZipsn5BZEEvs7ku6z8R716r8AdwAB7F5ue9eL57Bj8VQAhiCdn9obOwRAULzvGNOBZ83ZRwxybPOxP6a4BzeNtjHmBom=w800-h526-no




Heute ist wieder Düsseldorf Monday

Die Woche beginnt und Düsseldorf öffnet mal wieder die Pforten!

Heute gleich im Doppelpaket! Unser monatliches Shuttle nach Budapest findet heute statt und gleichzeitig bietet sich auch die Route nach Nürnberg an.
Alle der Ziele befinden sich auf mehr oder weniger einer Strecke, sodass ihr heute Abend in den Luxus kommt, gleich alle Destinationen zu verkosten! :p

Auf jeden Fall freuen wir uns auf euren Besuch heute Abend und wünschen schonmal viel Spaß!

Bis später!


Nützliche Infos:

Scenery:

TAF:
  • EDDL 310500Z 3106/0112 VRB03KT CAVOK BECMG 3107/3110 05007KT BECMG 3121/3124 11003KT BECMG 0107/010910008KT
 

Kai Schuele

1482477
RG Düsseldorf - Event
ACtC-3fxPHH-pFI9LbR6lefGD142tAQVEnYcfKRyOc-x7T_VQnoY2ipS-QdAKGyfZipsn5BZEEvs7ku6z8R716r8AdwAB7F5ue9eL57Bj8VQAhiCdn9obOwRAULzvGNOBZ83ZRwxybPOxP6a4BzeNtjHmBom=w800-h526-no


Heute heißt es wieder "Langen Radar Identified"

Zum Wochenstart haben wir wie jede Woche den größten Flughafen in NRW von DEL bis CTR voll für euch besetzt.
Das Wetter zeigt sich heute wieder sehr freundlich nach dem Stürmischen Wochenende, also beste Bedingungen für den Weg ins Cockpit.
Genießt wie immer unseren gewohnt guten ATC Service und beginnt oder beendet heute euren Flug bei uns.

Wie jede Woche bietet sich natürlich unsere kleine Rennstrecke zu den Kollegen in Nürnberg (EDDN) die wie gewohnt heute auch ihren Onlinetag haben.
Aber auch ein Trip zum Onlinetag in Budapest (LHBP) können wir euch nur Wärmsten Empfehlen oder wer gerne mal zum Final Vectoriert werden möchte wäre das "Vectors to Copenhagen“ heute eine gute Alternative.
Heute noch besonders zu empfehlen ist ein kurzer Trip in den Luftraum unserer Niederländischen Kollegen, weil dort heute ein Kollege sein C1 CPT auf dem CTR bestreiten möchte.


Also seid dabei ab 17:00z (19:00lcl) wenn es wieder heißt "Willkommen an ihrem Flughafen Düsseldorf"

Wir freuen uns bis Gleich!


Nützliche Infos:

Scenery:

TAF:
  • EDDL 070309Z 0703/0806 VRB03KT 9999 BKN015 BECMG 0703/0706 34006KT BKN012 PROB30 TEMPO 0704/0706 4000BR BECMG 0706/0709 BKN020 TEMPO 0803/0806 VRB03KT
 

Maurice Szmudzinski

1332208
RG Düsseldorf - Event
Heyho!

Heute ist es wieder soweit und Düsseldorf beglückt euch mit voller Besetzung und schönstem Wetter!
Wir haben alle Tore offen und freuen uns auf euren Besuch heute Abend.

Ab 19lcl sind wir für euch anzutreffen, wir freuen uns auf euch! :)
 
Oben